Englevale, North Dakota
Current Conditions -  °F | °C
As of 7:35 PM on Tuesday 27 Jan 2015 (Local Time) from KGWR Reporting Station
Overcast Overcast  
Wind Chill: 32°   Ceiling: 100
Heat Index: 32°   Visibility: 1mi
Dew Point: 32°   Wind: 0mph
Humidity: 100%   Direction: NA
Pressure: 29.93"   Gusts: NA
Location:  46.4564°N, 97.909°W
Report Text: KGWR 280135Z AUTO 00000KT 1SM OVC001 00/00 A2993 RMK A01 P000
Loading
Personal Weather Stations






























Interactive Weather Map New forecast layout! Learn more

10-Day Weather Forecast

Advertisements
Track Severe Weather on mobile